createdAt,value
2023-03-11T00:00:00.314Z,3.40
2023-03-11T00:03:09.556Z,2.70
2023-03-11T00:06:02.008Z,3.20
2023-03-11T00:08:52.361Z,2.80
2023-03-11T00:11:41.363Z,3.70
2023-03-11T00:14:30.383Z,4.20
2023-03-11T00:17:19.284Z,4.30
2023-03-11T00:20:15.381Z,3.70
2023-03-11T00:23:06.567Z,3.80
2023-03-11T00:25:55.689Z,3.90
2023-03-11T00:28:44.540Z,3.60
2023-03-11T00:31:33.162Z,3.70
2023-03-11T00:34:22.156Z,3.90
2023-03-11T00:37:10.967Z,3.90
2023-03-11T00:40:00.498Z,3.50
2023-03-11T00:42:49.286Z,3.30
2023-03-11T00:45:38.690Z,3.00
2023-03-11T00:48:28.503Z,3.20
2023-03-11T00:51:17.708Z,3.30
2023-03-11T00:54:06.486Z,2.60
2023-03-11T00:56:55.483Z,3.00
2023-03-11T00:59:44.276Z,2.70
2023-03-11T01:02:35.867Z,3.20
2023-03-11T01:05:28.690Z,2.80
2023-03-11T01:08:17.854Z,2.70
2023-03-11T01:11:08.125Z,2.70
2023-03-11T01:13:57.046Z,3.10
2023-03-11T01:16:46.530Z,2.60
2023-03-11T01:19:35.513Z,2.30
2023-03-11T01:22:24.427Z,2.90
2023-03-11T01:25:15.448Z,2.70
2023-03-11T01:28:05.610Z,3.00
2023-03-11T01:30:54.600Z,2.30
2023-03-11T01:33:43.353Z,2.20
2023-03-11T01:36:32.345Z,2.00
2023-03-11T01:39:20.947Z,1.70
2023-03-11T01:42:10.556Z,2.50
2023-03-11T01:44:59.577Z,2.80
2023-03-11T01:47:48.578Z,1.80
2023-03-11T01:50:43.290Z,1.70
2023-03-11T01:53:34.036Z,1.50
2023-03-11T01:56:23.735Z,1.40
2023-03-11T01:59:16.534Z,1.60
2023-03-11T02:06:23.500Z,1.40
2023-03-11T02:09:14.883Z,1.40
2023-03-11T02:12:06.477Z,1.20
2023-03-11T02:14:55.398Z,1.20
2023-03-11T02:17:44.558Z,1.40
2023-03-11T02:20:58.270Z,1.20
2023-03-11T02:23:58.041Z,1.30
2023-03-11T02:26:57.563Z,1.10
2023-03-11T02:29:50.028Z,1.30
2023-03-11T02:32:40.885Z,1.30
2023-03-11T02:35:30.135Z,1.40
2023-03-11T02:38:19.075Z,1.00
2023-03-11T02:41:08.123Z,1.20
2023-03-11T02:43:57.739Z,1.30
2023-03-11T02:46:46.907Z,1.40
2023-03-11T02:49:36.934Z,1.20
2023-03-11T02:52:27.873Z,1.10
2023-03-11T02:55:18.240Z,1.50
2023-03-11T02:58:07.019Z,1.70
2023-03-11T03:00:55.924Z,1.50
2023-03-11T03:03:45.689Z,1.60
2023-03-11T03:06:34.668Z,1.50
2023-03-11T03:09:23.458Z,1.80
2023-03-11T03:12:12.483Z,1.50
2023-03-11T03:15:01.533Z,1.30
2023-03-11T03:17:51.657Z,1.70
2023-03-11T03:20:40.890Z,1.70
2023-03-11T03:23:29.824Z,1.60
2023-03-11T03:26:19.076Z,1.70
2023-03-11T03:29:09.902Z,1.70
2023-03-11T03:31:58.575Z,1.70
2023-03-11T03:34:47.771Z,1.40
2023-03-11T03:37:38.147Z,1.50
2023-03-11T03:40:27.406Z,1.50
2023-03-11T03:43:17.050Z,1.70
2023-03-11T03:46:07.143Z,1.80
2023-03-11T03:49:02.037Z,1.90
2023-03-11T03:51:51.421Z,2.00
2023-03-11T03:54:48.973Z,1.80
2023-03-11T03:57:38.245Z,2.00
2023-03-11T04:00:27.494Z,1.70
2023-03-11T04:03:18.786Z,1.90
2023-03-11T04:06:24.549Z,1.80
2023-03-11T04:09:18.567Z,1.90
2023-03-11T04:12:08.121Z,2.00
2023-03-11T04:14:57.765Z,1.60
2023-03-11T04:17:47.206Z,1.60
2023-03-11T04:20:38.941Z,1.70
2023-03-11T04:23:27.792Z,1.50
2023-03-11T04:26:17.079Z,1.50
2023-03-11T04:29:05.860Z,1.40
2023-03-11T04:31:59.037Z,1.70
2023-03-11T04:34:47.964Z,1.50
2023-03-11T04:37:36.742Z,1.90
2023-03-11T04:40:25.603Z,1.90
2023-03-11T04:43:14.533Z,2.00
2023-03-11T04:46:04.322Z,2.00
2023-03-11T04:48:53.829Z,1.50
2023-03-11T04:51:43.025Z,1.40
2023-03-11T04:54:32.721Z,1.50
2023-03-11T04:57:22.479Z,1.60
2023-03-11T05:00:12.788Z,1.30
2023-03-11T05:03:03.667Z,1.20
2023-03-11T05:05:56.642Z,1.20
2023-03-11T05:08:45.843Z,0.90
2023-03-11T05:11:35.896Z,1.00
2023-03-11T05:14:25.235Z,0.90
2023-03-11T05:17:16.000Z,0.80
2023-03-11T05:20:07.585Z,0.70
2023-03-11T05:22:56.596Z,1.00
2023-03-11T05:25:45.744Z,1.00
2023-03-11T05:28:34.897Z,0.80
2023-03-11T05:31:23.839Z,1.00
2023-03-11T05:34:13.390Z,0.90
2023-03-11T05:37:04.670Z,0.70
2023-03-11T05:39:53.814Z,0.70
2023-03-11T05:42:43.407Z,0.80
2023-03-11T05:45:33.594Z,0.80
2023-03-11T05:48:23.506Z,0.90
2023-03-11T05:51:13.263Z,0.90
2023-03-11T05:54:02.954Z,0.90
2023-03-11T05:56:58.021Z,1.00
2023-03-11T05:59:47.096Z,1.40
2023-03-11T06:02:36.557Z,0.90
2023-03-11T06:05:25.611Z,1.20
2023-03-11T06:08:17.202Z,1.30
2023-03-11T06:11:10.889Z,1.70
2023-03-11T06:14:00.408Z,1.60
2023-03-11T06:16:50.354Z,2.10
2023-03-11T06:19:42.110Z,2.10
2023-03-11T06:22:32.202Z,2.00
2023-03-11T06:25:21.251Z,2.00
2023-03-11T06:28:10.472Z,1.40
2023-03-11T06:31:08.768Z,1.40
2023-03-11T06:33:58.976Z,1.60
2023-03-11T06:36:48.002Z,1.90
2023-03-11T06:39:36.674Z,1.80
2023-03-11T06:42:25.871Z,1.70
2023-03-11T06:45:17.891Z,2.10
2023-03-11T06:48:08.681Z,2.10
2023-03-11T06:50:59.350Z,1.90
2023-03-11T06:53:51.885Z,2.00
2023-03-11T06:56:41.509Z,1.80
2023-03-11T06:59:31.339Z,1.90
2023-03-11T07:02:21.490Z,2.00
2023-03-11T07:05:10.667Z,1.90
2023-03-11T07:07:59.669Z,1.70
2023-03-11T07:11:00.491Z,1.70
2023-03-11T07:13:49.775Z,1.70
2023-03-11T07:16:40.446Z,2.00
2023-03-11T07:19:34.028Z,1.80
2023-03-11T07:22:22.806Z,2.30
2023-03-11T07:25:11.930Z,2.60
2023-03-11T07:28:00.623Z,2.90
2023-03-11T07:30:49.589Z,2.90
2023-03-11T07:33:38.560Z,2.80
2023-03-11T07:36:29.012Z,2.90
2023-03-11T07:39:19.081Z,3.60
2023-03-11T07:42:07.929Z,3.20
2023-03-11T07:44:57.327Z,2.60
2023-03-11T07:47:46.139Z,3.20
2023-03-11T07:50:34.985Z,2.60
2023-03-11T07:53:24.706Z,2.50
2023-03-11T07:56:15.440Z,2.10
2023-03-11T07:59:04.994Z,2.60
2023-03-11T08:01:53.737Z,2.20
2023-03-11T08:04:42.637Z,2.10
2023-03-11T08:07:32.519Z,2.20
2023-03-11T08:10:21.520Z,1.70
2023-03-11T08:13:10.252Z,2.00
2023-03-11T08:15:59.340Z,2.00
2023-03-11T08:18:49.862Z,1.80
2023-03-11T08:21:38.535Z,2.30
2023-03-11T08:24:27.319Z,2.10
2023-03-11T08:27:16.239Z,2.00
2023-03-11T08:30:06.531Z,1.90
2023-03-11T08:32:55.604Z,2.30
2023-03-11T08:35:44.427Z,2.50
2023-03-11T08:38:33.551Z,1.90
2023-03-11T08:41:23.235Z,2.30
2023-03-11T08:44:12.227Z,2.10
2023-03-11T08:47:01.825Z,1.50
2023-03-11T08:49:50.730Z,1.60
2023-03-11T08:52:39.483Z,1.80
2023-03-11T08:55:28.944Z,1.80
2023-03-11T08:58:18.393Z,1.90
2023-03-11T09:01:09.455Z,2.80
2023-03-11T09:03:58.618Z,3.00
2023-03-11T09:06:49.160Z,3.30
2023-03-11T09:09:38.037Z,4.20
2023-03-11T09:12:26.955Z,4.20
2023-03-11T09:15:15.940Z,3.40
2023-03-11T09:18:04.858Z,3.60
2023-03-11T09:20:58.291Z,3.70
2023-03-11T09:23:48.017Z,4.20
2023-03-11T09:26:36.908Z,4.10
2023-03-11T09:29:25.961Z,3.60
2023-03-11T09:32:15.687Z,3.20
2023-03-11T09:35:05.434Z,2.50
2023-03-11T09:37:54.408Z,3.00
2023-03-11T09:40:55.343Z,2.40
2023-03-11T09:44:10.240Z,2.20
2023-03-11T09:47:44.458Z,2.50
2023-03-11T09:50:40.632Z,2.00
2023-03-11T09:53:38.412Z,2.40
2023-03-11T09:56:27.665Z,2.30
2023-03-11T09:59:29.189Z,2.50
2023-03-11T10:02:20.254Z,2.50
2023-03-11T10:05:20.754Z,1.90
2023-03-11T10:08:23.450Z,1.90
2023-03-11T10:11:24.448Z,3.70
2023-03-11T10:14:39.926Z,4.20
2023-03-11T10:17:39.897Z,4.90
2023-03-11T10:20:53.585Z,4.20
2023-03-11T10:24:00.794Z,4.50
2023-03-11T10:26:58.018Z,3.80
2023-03-11T10:30:10.122Z,4.10
2023-03-11T10:33:17.466Z,4.60
2023-03-11T10:36:15.342Z,4.20
2023-03-11T10:39:04.893Z,4.70
2023-03-11T10:41:56.627Z,7.50
2023-03-11T10:44:45.371Z,20.40
2023-03-11T10:47:34.323Z,12.60
2023-03-11T10:50:22.960Z,12.30
2023-03-11T10:53:18.260Z,10.00
2023-03-11T10:56:19.253Z,6.60
2023-03-11T10:59:43.209Z,7.30
2023-03-11T11:02:38.334Z,8.70
2023-03-11T11:05:33.735Z,5.70
2023-03-11T11:08:22.638Z,7.50
2023-03-11T11:11:24.688Z,6.00
2023-03-11T11:14:13.383Z,8.40
2023-03-11T11:17:02.905Z,11.00
2023-03-11T11:19:53.471Z,8.10
2023-03-11T11:22:49.339Z,6.70
2023-03-11T11:25:43.744Z,6.90
2023-03-11T11:28:34.035Z,10.50
2023-03-11T11:31:25.735Z,9.50
2023-03-11T11:34:27.268Z,5.20
2023-03-11T11:37:16.419Z,11.70
2023-03-11T11:40:39.627Z,5.50
2023-03-11T11:43:38.932Z,5.80
2023-03-11T11:46:35.991Z,4.30
2023-03-11T11:49:29.139Z,3.80
2023-03-11T11:52:26.902Z,4.70
2023-03-11T11:55:27.980Z,11.30
2023-03-11T11:58:16.884Z,8.10
2023-03-11T12:01:36.522Z,3.90
2023-03-11T12:04:43.084Z,3.70
2023-03-11T12:07:47.769Z,3.20
2023-03-11T12:11:03.057Z,4.10
2023-03-11T12:14:03.327Z,3.60
2023-03-11T12:17:01.969Z,4.20
2023-03-11T12:20:31.146Z,3.90
2023-03-11T12:23:45.211Z,4.90
2023-03-11T12:26:39.682Z,3.40
2023-03-11T12:29:43.368Z,3.40
2023-03-11T12:32:39.488Z,4.20
2023-03-11T12:35:37.414Z,5.50
2023-03-11T12:38:34.795Z,3.80
2023-03-11T12:41:42.317Z,6.30
2023-03-11T12:44:31.075Z,3.30
2023-03-11T12:47:22.892Z,3.20
2023-03-11T12:50:39.702Z,4.30
2023-03-11T12:53:47.379Z,4.50
2023-03-11T12:56:44.366Z,3.80
2023-03-11T12:59:48.415Z,6.10
2023-03-11T13:03:08.132Z,4.90
2023-03-11T13:06:19.969Z,4.60
2023-03-11T13:09:15.724Z,5.00
2023-03-11T13:12:54.240Z,3.90
2023-03-11T13:15:43.165Z,4.40
2023-03-11T13:18:33.300Z,6.40
2023-03-11T13:21:28.111Z,5.60
2023-03-11T13:24:22.159Z,8.00
2023-03-11T13:27:40.991Z,8.00
2023-03-11T13:30:39.111Z,4.30
2023-03-11T13:33:42.278Z,4.90
2023-03-11T13:36:51.559Z,8.50
2023-03-11T13:40:07.981Z,6.60
2023-03-11T13:43:04.111Z,4.20
2023-03-11T13:46:04.277Z,5.50
2023-03-11T13:49:03.195Z,4.00
2023-03-11T13:51:55.157Z,4.70
2023-03-11T13:54:58.460Z,5.10
2023-03-11T13:57:55.961Z,6.20
2023-03-11T14:00:50.820Z,4.40
2023-03-11T14:03:42.414Z,5.30
2023-03-11T14:06:31.464Z,4.80
2023-03-11T14:09:22.397Z,5.00
2023-03-11T14:12:12.326Z,7.40
2023-03-11T14:15:05.536Z,6.20
2023-03-11T14:18:14.731Z,4.20
2023-03-11T14:21:06.209Z,6.20
2023-03-11T14:23:56.492Z,7.40
2023-03-11T14:26:48.023Z,6.50
2023-03-11T14:32:30.982Z,7.40
2023-03-11T14:35:20.936Z,5.80
2023-03-11T14:38:27.646Z,15.20
2023-03-11T14:41:16.817Z,34.40
2023-03-11T14:44:07.888Z,7.30
2023-03-11T14:47:07.559Z,7.00
2023-03-11T14:49:57.283Z,5.40
2023-03-11T14:52:48.975Z,6.30
2023-03-11T14:55:43.111Z,5.10
2023-03-11T14:58:38.750Z,5.50
2023-03-11T15:01:34.771Z,5.80
2023-03-11T15:04:34.791Z,5.60
2023-03-11T15:07:23.885Z,6.60
2023-03-11T15:10:13.404Z,6.70
2023-03-11T15:13:08.603Z,4.80
2023-03-11T15:16:06.957Z,5.00
2023-03-11T15:18:56.911Z,5.80
2023-03-11T15:21:47.486Z,7.00
2023-03-11T15:24:36.393Z,8.00
2023-03-11T15:27:31.617Z,8.50
2023-03-11T15:30:30.563Z,6.60
2023-03-11T15:33:32.096Z,6.80
2023-03-11T15:36:39.635Z,5.30
2023-03-11T15:39:42.291Z,3.50
2023-03-11T15:42:31.089Z,3.90
2023-03-11T15:45:21.075Z,3.80
2023-03-11T15:48:11.004Z,2.60
2023-03-11T15:51:00.710Z,3.00
2023-03-11T15:53:49.490Z,5.20
2023-03-11T15:56:39.754Z,4.60
2023-03-11T15:59:29.815Z,4.20
2023-03-11T16:02:25.075Z,4.90
2023-03-11T16:05:16.643Z,4.30
2023-03-11T16:08:05.891Z,5.60
2023-03-11T16:10:55.289Z,6.50
2023-03-11T16:13:44.525Z,6.50
2023-03-11T16:16:33.658Z,5.00
2023-03-11T16:19:22.524Z,6.80
2023-03-11T16:22:25.088Z,6.90
2023-03-11T16:25:21.867Z,6.60
2023-03-11T16:28:13.694Z,10.30
2023-03-11T16:31:02.839Z,5.20
2023-03-11T16:33:52.174Z,7.30
2023-03-11T16:36:41.365Z,6.20
2023-03-11T16:39:30.168Z,5.50
2023-03-11T16:42:23.813Z,5.90
2023-03-11T16:45:13.917Z,5.80
2023-03-11T16:48:03.698Z,6.30
2023-03-11T16:50:52.606Z,5.50
2023-03-11T16:53:41.588Z,5.40
2023-03-11T16:56:31.161Z,4.10
2023-03-11T16:59:20.010Z,3.80
2023-03-11T17:02:12.310Z,3.60
2023-03-11T17:05:01.402Z,4.00
2023-03-11T17:07:54.290Z,4.10
2023-03-11T17:10:45.198Z,3.90
2023-03-11T17:13:33.863Z,5.60
2023-03-11T17:16:23.797Z,3.80
2023-03-11T17:19:13.331Z,5.30
2023-03-11T17:22:02.590Z,4.50
2023-03-11T17:24:51.436Z,5.10
2023-03-11T17:27:40.712Z,6.20
2023-03-11T17:30:36.735Z,4.50
2023-03-11T17:33:26.531Z,4.10
2023-03-11T17:36:16.917Z,4.70
2023-03-11T17:39:05.849Z,4.90
2023-03-11T17:41:54.699Z,5.20
2023-03-11T17:44:51.424Z,3.50
2023-03-11T17:47:40.861Z,3.70
2023-03-11T17:50:30.035Z,4.10
2023-03-11T17:53:18.935Z,3.60
2023-03-11T17:56:09.016Z,3.20
2023-03-11T17:58:58.919Z,4.00
2023-03-11T18:01:47.982Z,3.50
2023-03-11T18:04:38.877Z,3.30
2023-03-11T18:07:27.872Z,3.80
2023-03-11T18:10:18.503Z,3.70
2023-03-11T18:13:07.348Z,5.30
2023-03-11T18:16:19.710Z,4.40
2023-03-11T18:19:21.397Z,4.20
2023-03-11T18:22:10.199Z,4.10
2023-03-11T18:24:58.935Z,3.80
2023-03-11T18:27:48.037Z,4.70
2023-03-11T18:30:38.036Z,3.80
2023-03-11T18:33:26.980Z,3.90
2023-03-11T18:36:17.228Z,3.50
2023-03-11T18:39:07.084Z,3.30
2023-03-11T18:41:56.058Z,3.80
2023-03-11T18:44:45.065Z,3.10
2023-03-11T18:47:35.606Z,3.20
2023-03-11T18:50:24.568Z,2.60
2023-03-11T18:53:13.945Z,3.20
2023-03-11T18:56:08.132Z,3.80
2023-03-11T18:58:58.736Z,3.20
2023-03-11T19:01:50.180Z,3.70
2023-03-11T19:04:39.733Z,3.60
2023-03-11T19:07:29.536Z,4.60
2023-03-11T19:10:20.275Z,3.40
2023-03-11T19:13:10.056Z,3.70
2023-03-11T19:16:02.292Z,3.40
2023-03-11T19:18:53.874Z,3.60
2023-03-11T19:21:42.734Z,3.30
2023-03-11T19:24:31.918Z,3.30
2023-03-11T19:27:20.995Z,3.50
2023-03-11T19:30:10.249Z,3.90
2023-03-11T19:32:59.458Z,3.60
2023-03-11T19:36:02.445Z,3.70
2023-03-11T19:38:51.274Z,4.20
2023-03-11T19:41:39.974Z,5.30
2023-03-11T19:44:30.451Z,5.30
2023-03-11T19:47:19.610Z,6.20
2023-03-11T19:50:09.408Z,6.30
2023-03-11T19:52:58.261Z,5.20
2023-03-11T19:55:50.086Z,5.70
2023-03-11T19:58:41.586Z,5.70
2023-03-11T20:01:31.883Z,4.90
2023-03-11T20:04:20.883Z,4.90
2023-03-11T20:07:09.925Z,4.40
2023-03-11T20:10:01.420Z,4.50
2023-03-11T20:13:01.831Z,3.90
2023-03-11T20:15:51.420Z,4.90
2023-03-11T20:18:40.436Z,4.20
2023-03-11T20:21:29.464Z,5.30
2023-03-11T20:24:18.742Z,4.50
2023-03-11T20:27:08.031Z,5.60
2023-03-11T20:29:57.240Z,6.20
2023-03-11T20:32:47.799Z,5.90
2023-03-11T20:35:36.848Z,6.40
2023-03-11T20:38:26.063Z,7.20
2023-03-11T20:41:15.045Z,6.60
2023-03-11T20:44:05.972Z,5.70
2023-03-11T20:46:55.483Z,5.60
2023-03-11T20:49:44.505Z,6.10
2023-03-11T20:52:35.982Z,6.50
2023-03-11T20:55:25.663Z,7.10
2023-03-11T20:58:14.698Z,8.00
2023-03-11T21:01:15.435Z,6.40
2023-03-11T21:04:05.125Z,6.60
2023-03-11T21:06:55.462Z,6.80
2023-03-11T21:09:44.775Z,7.20
2023-03-11T21:12:33.831Z,8.60
2023-03-11T21:15:22.858Z,7.30
2023-03-11T21:18:11.887Z,7.00
2023-03-11T21:21:01.274Z,6.20
2023-03-11T21:23:51.339Z,6.60
2023-03-11T21:26:40.851Z,6.10
2023-03-11T21:29:30.820Z,6.10
2023-03-11T21:32:20.208Z,6.90
2023-03-11T21:35:09.374Z,7.10
2023-03-11T21:37:58.230Z,6.80
2023-03-11T21:40:47.444Z,6.30
2023-03-11T21:43:37.114Z,7.40
2023-03-11T21:46:30.123Z,6.90
2023-03-11T21:49:19.066Z,6.30
2023-03-11T21:52:08.146Z,4.80
2023-03-11T21:54:57.406Z,6.00
2023-03-11T21:57:46.643Z,5.50
2023-03-11T22:00:35.524Z,6.40
2023-03-11T22:03:24.887Z,6.80
2023-03-11T22:06:14.487Z,6.40
2023-03-11T22:09:04.606Z,6.30
2023-03-11T22:11:53.905Z,6.50
2023-03-11T22:14:42.852Z,6.90
2023-03-11T22:17:31.532Z,6.40
2023-03-11T22:20:20.549Z,6.30
2023-03-11T22:23:10.422Z,6.70
2023-03-11T22:25:59.474Z,6.60
2023-03-11T22:28:48.569Z,5.60
2023-03-11T22:31:37.697Z,5.80
2023-03-11T22:34:26.726Z,7.00
2023-03-11T22:37:16.134Z,7.70
2023-03-11T22:40:07.755Z,6.50
2023-03-11T22:42:57.318Z,6.50
2023-03-11T22:45:46.295Z,6.60
2023-03-11T22:48:35.616Z,6.60
2023-03-11T22:51:24.692Z,6.60
2023-03-11T22:54:14.050Z,5.90
2023-03-11T22:57:02.826Z,6.60
2023-03-11T22:59:51.777Z,6.70
2023-03-11T23:02:40.507Z,6.40
2023-03-11T23:05:29.769Z,7.10
2023-03-11T23:08:18.696Z,6.00
2023-03-11T23:11:10.187Z,8.00
2023-03-11T23:16:49.345Z,7.90
2023-03-11T23:19:38.253Z,6.60
2023-03-11T23:22:27.192Z,6.70
2023-03-11T23:25:17.000Z,6.30
2023-03-11T23:28:07.153Z,8.40
2023-03-11T23:30:55.760Z,8.00
2023-03-11T23:33:45.627Z,6.40
2023-03-11T23:36:34.323Z,7.40
2023-03-11T23:39:23.442Z,6.70
2023-03-11T23:42:25.122Z,6.40
2023-03-11T23:45:14.433Z,7.70
2023-03-11T23:48:03.334Z,6.20
2023-03-11T23:50:52.253Z,6.80
2023-03-11T23:53:41.015Z,6.40
2023-03-11T23:56:29.851Z,6.90
2023-03-11T23:59:18.836Z,7.30
